LKNA

Náměšť Air Base Airport

Náměšť, Czech Republic
METAR LKNA 211700Z 25009KT 9999 FEW060CB SCT080 BKN190 25/12 Q1010 NOSIG RMK BLU BLU
Observed Flight Rules
Jul-21 @ 17:00 UTC (44 minutes ago) Visual Flight Rules
Wind Visibility Clouds
250° at 9 knots 10,000+ meters
  • Few at 6,000' AGL
  • Scattered at 8,000' AGL
  • Broken at 19,000' AGL
Temperatures Readings
Current 25°C / 77°F
Dewpoint 12°C / 54°F
Humidity 44%
Altimeter 29.82" Hg
Pressure 1010 hPa
Elevation 472
METAR LKNA 211700Z 25009KT 9999 FEW060CB SCT080 BKN190 25/12 Q1010 NOSIG RMK BLU BLU
Observed Flight Rules
Jul-21 @ 17:00 UTC
(44 minutes ago)
VFR
Wind Visibility
250° at 9 knots 10,000+ meters
Clouds
  • Few at 6,000' AGL
  • Scattered at 8,000' AGL
  • Broken at 19,000' AGL
Temperature Dewpoint
25°C / 77°F 12°C / 54°F
Humidity Altimeter Pressure
44% 29.82" Hg 1010 hPa